Dunkirk, United Kingdom
Current Conditions -  °F | °C
As of 1:50 PM on Saturday 20 Dec 2014 (Local Time) from EGMC Reporting Station
Scattered Clouds Scattered Clouds  
Wind Chill: 42°   Ceiling: Unl
Heat Index: 48°   Visibility: 6mi
Dew Point: 37°   Wind: 16mph
Humidity: 66%   Direction: 280°W
Pressure: 30.27"   Gusts: NA
Location:  51.29°N, 0.98°E
Report Text: EGMC 201350Z 28014KT 9999 SCT037 09/03 Q1025
Loading
Personal Weather Stations






























Interactive Weather Map New forecast layout! Learn more

10-Day Weather Forecast

Advertisements
Track Severe Weather on mobile